Aviation Digital Data Service (ADDS)

Output produced by METARs form (0124 UTC 16 January 2019)
found at http://www.aviationweather.gov/metar/data/
 
TAF MPPA 152300Z 1600/1706 36010KT 9999 FEW020 
     TEMPO 1604/1608 36005KT
       
TAF MPDA 152300Z 1600/1612 00000KT 9999 FEW020 
     TEMPO 1600/1603 02006KT
       
TAF MPMG 152300Z 1600/1612 34010KT 9999 FEW020
       
TAF MPTO 152300Z 1600/1706 01010KT 9999 SCT020 
     TEMPO 1604/1608 32005KT